createdAt,value
2022-12-09T00:01:18.438Z,25.73
2022-12-09T00:03:46.226Z,26.73
2022-12-09T00:06:19.222Z,24.80
2022-12-09T00:08:46.985Z,26.10
2022-12-09T00:11:14.247Z,28.00
2022-12-09T00:13:41.653Z,26.23
2022-12-09T00:16:14.103Z,27.87
2022-12-09T00:18:42.786Z,25.43
2022-12-09T00:21:28.660Z,27.87
2022-12-09T00:23:57.822Z,29.23
2022-12-09T00:26:27.752Z,27.27
2022-12-09T00:28:55.689Z,26.60
2022-12-09T00:31:27.690Z,28.80
2022-12-09T00:34:01.622Z,29.43
2022-12-09T00:36:28.943Z,28.07
2022-12-09T00:38:57.992Z,30.33
2022-12-09T00:41:27.417Z,31.53
2022-12-09T00:43:54.435Z,25.70
2022-12-09T00:46:21.390Z,27.37
2022-12-09T00:48:48.276Z,21.43
2022-12-09T00:51:22.608Z,21.60
2022-12-09T00:53:55.782Z,19.63
2022-12-09T00:56:26.347Z,22.37
2022-12-09T00:58:53.804Z,19.23
2022-12-09T01:01:21.414Z,18.83
2022-12-09T01:03:48.943Z,19.07
2022-12-09T01:06:21.071Z,20.23
2022-12-09T01:08:48.301Z,21.30
2022-12-09T01:11:27.712Z,20.00
2022-12-09T01:14:00.547Z,22.80
2022-12-09T01:16:31.680Z,20.43
2022-12-09T01:19:03.116Z,20.70
2022-12-09T01:21:30.812Z,21.63
2022-12-09T01:23:58.150Z,25.90
2022-12-09T01:26:27.127Z,22.07
2022-12-09T01:28:55.948Z,22.00
2022-12-09T01:31:24.422Z,22.70
2022-12-09T01:33:54.147Z,21.20
2022-12-09T01:36:25.674Z,22.40
2022-12-09T01:38:53.258Z,20.70
2022-12-09T01:41:23.325Z,25.07
2022-12-09T01:44:23.663Z,22.27
2022-12-09T01:46:59.130Z,18.30
2022-12-09T01:49:37.330Z,21.50
2022-12-09T01:52:14.139Z,20.90
2022-12-09T01:54:45.307Z,21.83
2022-12-09T01:57:13.473Z,19.30
2022-12-09T01:59:41.907Z,20.37
2022-12-09T02:02:14.388Z,20.23
2022-12-09T02:04:46.198Z,18.10
2022-12-09T02:07:13.420Z,20.43
2022-12-09T02:09:42.360Z,19.47
2022-12-09T02:12:23.493Z,21.17
2022-12-09T02:15:13.591Z,17.63
2022-12-09T02:17:44.566Z,19.17
2022-12-09T02:20:41.153Z,18.07
2022-12-09T02:23:25.742Z,16.50
2022-12-09T02:26:21.632Z,20.60
2022-12-09T02:29:20.579Z,17.43
2022-12-09T02:32:12.308Z,19.90
2022-12-09T02:35:05.470Z,15.93
2022-12-09T02:37:44.231Z,18.43
2022-12-09T02:40:30.910Z,18.90
2022-12-09T02:43:02.137Z,21.20
2022-12-09T02:45:32.277Z,18.97
2022-12-09T02:48:02.816Z,17.50
2022-12-09T02:50:36.707Z,19.77
2022-12-09T02:53:11.048Z,17.77
2022-12-09T02:55:39.862Z,17.13
2022-12-09T02:58:06.844Z,19.50
2022-12-09T03:00:34.991Z,18.70
2022-12-09T03:03:05.606Z,17.67
2022-12-09T03:06:02.797Z,17.20
2022-12-09T03:08:58.880Z,17.57
2022-12-09T03:11:28.046Z,17.27
2022-12-09T03:14:35.241Z,16.23
2022-12-09T03:17:12.897Z,16.40
2022-12-09T03:20:12.676Z,15.63
2022-12-09T03:22:44.519Z,16.60
2022-12-09T03:25:48.772Z,16.80
2022-12-09T03:28:33.087Z,16.27
2022-12-09T03:31:06.816Z,17.07
2022-12-09T03:33:33.743Z,15.90
2022-12-09T03:36:06.921Z,16.07
2022-12-09T03:38:39.684Z,16.17
2022-12-09T03:41:24.259Z,15.47
2022-12-09T03:44:08.658Z,16.67
2022-12-09T03:46:36.279Z,15.23
2022-12-09T03:49:03.714Z,14.90
2022-12-09T03:51:55.575Z,15.07
2022-12-09T03:54:34.778Z,15.60
2022-12-09T03:57:02.451Z,18.10
2022-12-09T03:59:35.110Z,16.70
2022-12-09T04:02:06.532Z,15.83
2022-12-09T04:04:35.050Z,15.27
2022-12-09T04:07:03.265Z,15.83
2022-12-09T04:09:30.151Z,12.27
2022-12-09T04:11:56.922Z,13.80
2022-12-09T04:14:23.840Z,14.23
2022-12-09T04:16:50.879Z,15.27
2022-12-09T04:19:17.786Z,15.03
2022-12-09T04:21:44.738Z,14.60
2022-12-09T04:24:11.791Z,15.23
2022-12-09T04:26:38.804Z,13.43
2022-12-09T04:29:09.425Z,16.10
2022-12-09T04:31:36.614Z,13.60
2022-12-09T04:34:09.225Z,15.63
2022-12-09T04:36:37.951Z,14.70
2022-12-09T04:39:05.389Z,15.73
2022-12-09T04:41:32.510Z,12.93
2022-12-09T04:43:59.371Z,13.77
2022-12-09T04:46:28.514Z,15.13
2022-12-09T04:48:55.650Z,13.10
2022-12-09T04:51:22.452Z,14.03
2022-12-09T04:53:49.475Z,13.87
2022-12-09T04:56:20.368Z,15.00
2022-12-09T04:58:50.622Z,15.80
2022-12-09T05:01:30.137Z,14.20
2022-12-09T05:03:58.748Z,14.77
2022-12-09T05:06:26.795Z,14.97
2022-12-09T05:08:54.105Z,15.07
2022-12-09T05:11:23.879Z,14.37
2022-12-09T05:13:53.215Z,13.13
2022-12-09T05:16:21.494Z,13.67
2022-12-09T05:18:50.025Z,15.90
2022-12-09T05:21:20.972Z,15.67
2022-12-09T05:23:48.655Z,14.13
2022-12-09T05:26:19.974Z,13.77
2022-12-09T05:28:48.144Z,14.17
2022-12-09T05:31:20.045Z,14.03
2022-12-09T05:33:49.671Z,13.70
2022-12-09T05:36:22.375Z,12.00
2022-12-09T05:38:50.916Z,13.33
2022-12-09T05:41:20.402Z,13.13
2022-12-09T05:43:47.280Z,16.27
2022-12-09T05:46:16.743Z,13.50
2022-12-09T05:48:44.518Z,15.33
2022-12-09T05:51:25.443Z,14.47
2022-12-09T05:53:53.999Z,15.23
2022-12-09T05:56:24.119Z,14.47
2022-12-09T05:58:54.137Z,13.53
2022-12-09T06:01:22.076Z,14.83
2022-12-09T06:03:53.358Z,16.77
2022-12-09T06:06:24.034Z,15.40
2022-12-09T06:09:00.693Z,14.73
2022-12-09T06:11:29.159Z,14.93
2022-12-09T06:13:56.271Z,17.00
2022-12-09T06:16:23.587Z,15.40
2022-12-09T06:18:51.564Z,14.80
2022-12-09T06:21:20.827Z,16.17
2022-12-09T06:23:49.769Z,18.03
2022-12-09T06:26:29.162Z,17.40
2022-12-09T06:28:58.349Z,15.60
2022-12-09T06:31:27.482Z,18.70
2022-12-09T06:33:57.224Z,18.27
2022-12-09T06:36:28.876Z,19.23
2022-12-09T06:39:01.760Z,20.83
2022-12-09T06:41:33.359Z,24.80
2022-12-09T06:44:00.830Z,25.37
2022-12-09T06:46:29.443Z,24.83
2022-12-09T06:48:56.932Z,22.90
2022-12-09T06:51:26.258Z,22.67
2022-12-09T06:53:54.462Z,28.45
2022-12-09T06:56:21.766Z,23.00
2022-12-09T06:58:49.133Z,21.93
2022-12-09T07:01:21.160Z,22.30
2022-12-09T07:03:54.918Z,20.43
2022-12-09T07:06:40.193Z,21.00
2022-12-09T07:09:17.767Z,21.17
2022-12-09T07:11:47.097Z,19.57
2022-12-09T07:14:18.428Z,18.33
2022-12-09T07:16:45.579Z,21.67
2022-12-09T07:19:22.281Z,22.80
2022-12-09T07:21:50.911Z,23.50
2022-12-09T07:24:19.555Z,21.67
2022-12-09T07:26:47.689Z,20.57
2022-12-09T07:29:15.234Z,26.70
2022-12-09T07:31:43.700Z,25.73
2022-12-09T07:34:12.003Z,23.50
2022-12-09T07:36:39.354Z,23.20
2022-12-09T07:39:16.280Z,27.87
2022-12-09T07:41:44.685Z,28.33
2022-12-09T07:44:12.101Z,25.10
2022-12-09T07:46:40.921Z,28.20
2022-12-09T07:49:11.225Z,24.60
2022-12-09T07:51:40.198Z,26.23
2022-12-09T07:54:11.707Z,25.83
2022-12-09T07:56:39.659Z,25.37
2022-12-09T07:59:13.133Z,24.03
2022-12-09T08:01:42.216Z,22.50
2022-12-09T08:04:10.504Z,28.80
2022-12-09T08:06:38.318Z,24.67
2022-12-09T08:09:12.419Z,27.67
2022-12-09T08:11:40.506Z,22.30
2022-12-09T08:14:13.001Z,25.43
2022-12-09T08:16:43.274Z,28.07
2022-12-09T08:19:12.572Z,26.43
2022-12-09T08:21:40.778Z,25.30
2022-12-09T08:24:10.321Z,25.67
2022-12-09T08:26:39.236Z,25.77
2022-12-09T08:29:13.060Z,26.03
2022-12-09T08:31:42.900Z,23.70
2022-12-09T08:34:11.603Z,26.17
2022-12-09T08:36:39.259Z,28.67
2022-12-09T08:39:06.948Z,27.53
2022-12-09T08:41:37.793Z,27.53
2022-12-09T08:44:20.250Z,28.83
2022-12-09T08:46:52.018Z,24.73
2022-12-09T08:49:23.290Z,29.77
2022-12-09T08:51:53.632Z,28.17
2022-12-09T08:54:21.581Z,28.53
2022-12-09T08:56:53.784Z,26.43
2022-12-09T08:59:22.369Z,26.93
2022-12-09T09:01:50.459Z,26.37
2022-12-09T09:04:20.705Z,24.47
2022-12-09T09:06:51.446Z,23.80
2022-12-09T09:09:21.131Z,23.10
2022-12-09T09:11:48.845Z,23.40
2022-12-09T09:14:16.689Z,25.17
2022-12-09T09:16:45.679Z,29.77
2022-12-09T09:19:21.762Z,27.53
2022-12-09T09:21:49.862Z,21.00
2022-12-09T09:24:20.786Z,23.47
2022-12-09T09:26:50.348Z,27.57
2022-12-09T09:29:22.054Z,25.03
2022-12-09T09:31:54.441Z,24.87
2022-12-09T09:34:24.517Z,26.53
2022-12-09T09:36:52.158Z,28.03
2022-12-09T09:39:20.839Z,25.97
2022-12-09T09:42:06.275Z,28.10
2022-12-09T09:44:54.224Z,27.30
2022-12-09T09:47:47.880Z,30.77
2022-12-09T09:50:38.701Z,30.37
2022-12-09T09:53:31.494Z,27.17
2022-12-09T09:56:43.769Z,29.43
2022-12-09T09:59:37.448Z,28.47
2022-12-09T10:02:33.117Z,29.13
2022-12-09T10:05:32.709Z,27.63
2022-12-09T10:08:28.981Z,25.13
2022-12-09T10:11:20.980Z,28.10
2022-12-09T10:14:15.249Z,28.27
2022-12-09T10:16:51.738Z,30.43
2022-12-09T10:19:43.543Z,31.07
2022-12-09T10:22:28.421Z,29.07
2022-12-09T10:24:59.987Z,30.43
2022-12-09T10:27:45.397Z,31.00
2022-12-09T10:30:21.730Z,32.03
2022-12-09T10:32:50.068Z,33.47
2022-12-09T10:35:26.799Z,28.80
2022-12-09T10:37:57.065Z,27.80
2022-12-09T10:40:35.553Z,29.63
2022-12-09T10:43:38.368Z,27.57
2022-12-09T10:46:20.102Z,30.47
2022-12-09T10:48:47.956Z,28.87
2022-12-09T10:51:36.545Z,30.63
2022-12-09T10:54:09.872Z,29.90
2022-12-09T10:56:59.441Z,28.37
2022-12-09T10:59:29.986Z,31.43
2022-12-09T11:02:02.859Z,33.20
2022-12-09T11:04:33.944Z,31.63
2022-12-09T11:07:05.194Z,27.87
2022-12-09T11:09:36.149Z,28.17
2022-12-09T11:12:16.105Z,28.63
2022-12-09T11:14:59.154Z,31.93
2022-12-09T11:17:31.620Z,31.93
2022-12-09T11:20:27.810Z,32.07
2022-12-09T11:23:14.466Z,29.80
2022-12-09T11:26:06.918Z,28.00
2022-12-09T11:28:39.562Z,27.13
2022-12-09T11:31:33.153Z,28.87
2022-12-09T11:34:26.165Z,31.03
2022-12-09T11:36:58.551Z,27.73
2022-12-09T11:39:35.334Z,29.07
2022-12-09T11:42:37.630Z,28.87
2022-12-09T11:45:18.165Z,26.37
2022-12-09T11:50:37.515Z,25.10
2022-12-09T11:53:13.519Z,27.50
2022-12-09T11:56:07.006Z,25.70
2022-12-09T11:59:01.384Z,26.57
2022-12-09T12:02:05.808Z,31.30
2022-12-09T12:05:21.347Z,29.03
2022-12-09T12:08:27.265Z,25.63
2022-12-09T12:11:21.158Z,27.53
2022-12-09T12:14:01.089Z,25.33
2022-12-09T12:16:54.387Z,28.53
2022-12-09T12:19:43.653Z,26.23
2022-12-09T12:22:25.383Z,24.40
2022-12-09T12:25:32.943Z,25.83
2022-12-09T12:28:36.123Z,24.03
2022-12-09T12:31:14.710Z,23.60
2022-12-09T12:34:24.516Z,24.30
2022-12-09T12:37:15.290Z,24.20
2022-12-09T12:40:23.492Z,21.87
2022-12-09T12:43:22.338Z,22.27
2022-12-09T12:46:17.786Z,23.57
2022-12-09T12:49:22.023Z,26.03
2022-12-09T12:51:54.759Z,25.90
2022-12-09T12:54:51.539Z,24.47
2022-12-09T12:57:45.262Z,23.00
2022-12-09T13:00:20.750Z,23.63
2022-12-09T13:03:13.788Z,25.10
2022-12-09T13:05:47.763Z,27.70
2022-12-09T13:08:38.568Z,26.27
2022-12-09T13:11:16.818Z,26.70
2022-12-09T13:14:18.952Z,25.97
2022-12-09T13:16:46.711Z,24.30
2022-12-09T13:19:26.997Z,24.77
2022-12-09T13:21:54.479Z,22.60
2022-12-09T13:24:42.934Z,24.93
2022-12-09T13:27:18.795Z,24.13
2022-12-09T13:30:00.936Z,23.87
2022-12-09T13:32:33.461Z,26.97
2022-12-09T13:35:17.788Z,24.60
2022-12-09T13:37:44.560Z,24.53
2022-12-09T13:40:39.259Z,27.50
2022-12-09T13:43:29.090Z,26.80
2022-12-09T13:46:00.839Z,25.37
2022-12-09T13:48:43.586Z,27.37
2022-12-09T13:51:11.141Z,22.00
2022-12-09T13:53:59.824Z,24.10
2022-12-09T13:56:33.249Z,21.77
2022-12-09T13:59:21.724Z,25.83
2022-12-09T14:01:54.841Z,24.47
2022-12-09T14:04:26.415Z,20.70
2022-12-09T14:07:15.119Z,29.30
2022-12-09T14:09:43.782Z,24.47
2022-12-09T14:12:34.298Z,24.60
2022-12-09T14:15:22.987Z,20.97
2022-12-09T14:17:49.650Z,22.83
2022-12-09T14:20:21.409Z,24.03
2022-12-09T14:23:06.915Z,25.90
2022-12-09T14:25:34.631Z,22.00
2022-12-09T14:28:10.775Z,25.67
2022-12-09T14:31:04.809Z,24.23
2022-12-09T14:33:42.805Z,22.33
2022-12-09T14:36:15.753Z,21.87
2022-12-09T14:42:05.467Z,24.43
2022-12-09T14:45:10.567Z,23.53
2022-12-09T14:47:45.613Z,25.20
2022-12-09T14:50:20.633Z,22.63
2022-12-09T14:53:04.244Z,21.00
2022-12-09T14:55:38.402Z,22.07
2022-12-09T14:58:21.927Z,21.27
2022-12-09T15:01:04.256Z,24.27
2022-12-09T15:03:37.074Z,24.17
2022-12-09T15:06:19.575Z,27.77
2022-12-09T15:08:54.044Z,26.77
2022-12-09T15:11:24.748Z,21.73
2022-12-09T15:13:54.534Z,24.70
2022-12-09T15:16:25.987Z,25.93
2022-12-09T15:18:54.752Z,25.13
2022-12-09T15:21:31.803Z,22.67
2022-12-09T15:24:00.860Z,26.43
2022-12-09T15:26:32.407Z,25.60
2022-12-09T15:29:01.028Z,34.67
2022-12-09T15:31:32.028Z,34.53
2022-12-09T15:34:11.215Z,33.87
2022-12-09T15:36:48.978Z,36.33
2022-12-09T15:39:26.475Z,32.63
2022-12-09T15:42:07.877Z,35.20
2022-12-09T15:45:10.539Z,32.53
2022-12-09T15:47:49.589Z,31.13
2022-12-09T15:50:34.067Z,30.10
2022-12-09T15:53:15.648Z,30.37
2022-12-09T15:56:05.564Z,25.43
2022-12-09T15:58:40.368Z,26.83
2022-12-09T16:01:07.511Z,25.47
2022-12-09T16:03:36.284Z,29.87
2022-12-09T16:06:09.831Z,28.50
2022-12-09T16:08:44.652Z,25.80
2022-12-09T16:11:12.493Z,26.23
2022-12-09T16:14:00.157Z,30.47
2022-12-09T16:16:35.534Z,25.87
2022-12-09T16:19:02.449Z,27.73
2022-12-09T16:21:36.219Z,29.27
2022-12-09T16:24:13.150Z,27.60
2022-12-09T16:26:46.965Z,25.17
2022-12-09T16:29:36.198Z,29.07
2022-12-09T16:32:31.573Z,29.10
2022-12-09T16:35:11.663Z,25.30
2022-12-09T16:37:42.782Z,24.63
2022-12-09T16:40:22.028Z,25.17
2022-12-09T16:42:55.352Z,27.83
2022-12-09T16:45:35.332Z,25.90
2022-12-09T16:48:02.753Z,30.47
2022-12-09T16:50:38.275Z,27.97
2022-12-09T16:53:14.994Z,28.40
2022-12-09T16:56:12.874Z,26.37
2022-12-09T16:58:39.623Z,27.20
2022-12-09T17:01:06.722Z,27.67
2022-12-09T17:03:42.918Z,28.10
2022-12-09T17:06:15.747Z,26.80
2022-12-09T17:08:43.219Z,25.47
2022-12-09T17:11:12.104Z,27.03
2022-12-09T17:13:39.405Z,29.37
2022-12-09T17:16:07.390Z,26.70
2022-12-09T17:18:35.350Z,29.20
2022-12-09T17:21:12.850Z,29.77
2022-12-09T17:23:41.181Z,27.43
2022-12-09T17:26:16.778Z,27.77
2022-12-09T17:28:47.214Z,27.03
2022-12-09T17:31:21.136Z,25.60
2022-12-09T17:33:48.346Z,26.70
2022-12-09T17:36:16.559Z,29.23
2022-12-09T17:38:44.111Z,26.77
2022-12-09T17:41:15.945Z,27.07
2022-12-09T17:43:43.388Z,26.70
2022-12-09T17:46:12.111Z,24.57
2022-12-09T17:48:40.161Z,26.63
2022-12-09T17:51:17.807Z,31.13
2022-12-09T17:53:46.452Z,29.63
2022-12-09T17:56:19.207Z,31.40
2022-12-09T17:58:48.281Z,31.77
2022-12-09T18:01:22.779Z,32.70
2022-12-09T18:04:00.424Z,36.37
2022-12-09T18:06:34.527Z,35.20
2022-12-09T18:09:04.506Z,33.47
2022-12-09T18:11:31.782Z,31.43
2022-12-09T18:13:59.204Z,26.87
2022-12-09T18:16:26.054Z,24.87
2022-12-09T18:18:53.305Z,26.53
2022-12-09T18:21:22.693Z,26.40
2022-12-09T18:23:49.733Z,27.77
2022-12-09T18:26:20.154Z,29.23
2022-12-09T18:28:49.303Z,28.17
2022-12-09T18:31:21.900Z,25.80
2022-12-09T18:33:48.951Z,27.90
2022-12-09T18:36:23.578Z,32.53
2022-12-09T18:38:50.930Z,41.78
2022-12-09T18:41:22.648Z,34.53
2022-12-09T18:43:52.935Z,32.10
2022-12-09T18:46:25.688Z,31.07
2022-12-09T18:49:15.804Z,28.47
2022-12-09T18:51:45.499Z,28.43
2022-12-09T18:54:24.515Z,30.23
2022-12-09T18:56:53.449Z,28.13
2022-12-09T18:59:22.097Z,31.80
2022-12-09T19:01:49.604Z,27.13
2022-12-09T19:04:20.977Z,32.33
2022-12-09T19:06:51.730Z,32.13
2022-12-09T19:09:25.402Z,32.50
2022-12-09T19:11:53.350Z,30.50
2022-12-09T19:14:22.908Z,32.00
2022-12-09T19:16:51.389Z,29.47
2022-12-09T19:19:25.415Z,27.70
2022-12-09T19:21:53.262Z,26.63
2022-12-09T19:24:24.521Z,28.63
2022-12-09T19:26:53.858Z,28.63
2022-12-09T19:29:24.247Z,28.70
2022-12-09T19:31:52.621Z,28.83
2022-12-09T19:34:30.253Z,30.73
2022-12-09T19:37:01.238Z,33.03
2022-12-09T19:39:31.331Z,32.00
2022-12-09T19:41:59.444Z,31.40
2022-12-09T19:47:14.506Z,32.50
2022-12-09T19:49:43.374Z,29.03
2022-12-09T19:52:11.965Z,29.27
2022-12-09T19:54:39.076Z,26.33
2022-12-09T19:57:06.130Z,30.80
2022-12-09T19:59:33.201Z,29.50
2022-12-09T20:02:00.435Z,35.63
2022-12-09T20:07:17.491Z,33.93
2022-12-09T20:09:44.269Z,29.53
2022-12-09T20:12:12.623Z,27.73
2022-12-09T20:14:40.566Z,31.87
2022-12-09T20:17:07.916Z,28.33
2022-12-09T20:19:36.561Z,29.20
2022-12-09T20:22:04.432Z,29.50
2022-12-09T20:24:31.200Z,29.03
2022-12-09T20:26:58.026Z,30.90
2022-12-09T20:29:24.844Z,28.57
2022-12-09T20:31:53.491Z,30.47
2022-12-09T20:34:20.353Z,28.13
2022-12-09T20:36:48.454Z,29.93
2022-12-09T20:39:19.432Z,28.83
2022-12-09T20:41:48.609Z,32.30
2022-12-09T20:44:17.736Z,31.17
2022-12-09T20:46:53.196Z,30.40
2022-12-09T20:49:27.078Z,32.47
2022-12-09T20:51:55.067Z,31.17
2022-12-09T20:54:23.591Z,32.30
2022-12-09T20:56:50.893Z,30.30
2022-12-09T20:59:17.733Z,33.70
2022-12-09T21:01:47.515Z,30.80
2022-12-09T21:04:15.166Z,28.73
2022-12-09T21:06:42.530Z,33.03
2022-12-09T21:09:18.520Z,32.50
2022-12-09T21:11:46.867Z,30.57
2022-12-09T21:14:18.114Z,31.70
2022-12-09T21:16:50.389Z,30.83
2022-12-09T21:19:25.098Z,30.67
2022-12-09T21:21:53.822Z,34.07
2022-12-09T21:24:22.169Z,32.57
2022-12-09T21:26:49.816Z,32.87
2022-12-09T21:29:16.588Z,30.50
2022-12-09T21:31:44.244Z,34.33
2022-12-09T21:34:11.285Z,30.00
2022-12-09T21:36:42.662Z,29.43
2022-12-09T21:39:13.555Z,29.50
2022-12-09T21:41:41.738Z,33.37
2022-12-09T21:44:16.257Z,34.57
2022-12-09T21:46:43.058Z,30.23
2022-12-09T21:49:10.545Z,29.93
2022-12-09T21:51:37.608Z,29.23
2022-12-09T21:54:04.983Z,32.73
2022-12-09T21:56:35.629Z,28.17
2022-12-09T21:59:05.386Z,32.43
2022-12-09T22:01:40.183Z,31.43
2022-12-09T22:04:11.716Z,29.47
2022-12-09T22:06:41.293Z,33.37
2022-12-09T22:09:08.930Z,29.67
2022-12-09T22:11:38.237Z,32.07
2022-12-09T22:14:07.106Z,38.13
2022-12-09T22:16:38.748Z,35.17
2022-12-09T22:19:11.075Z,34.20
2022-12-09T22:21:37.873Z,32.87
2022-12-09T22:24:09.256Z,30.80
2022-12-09T22:26:36.198Z,28.30
2022-12-09T22:29:06.105Z,29.43
2022-12-09T22:31:37.518Z,31.17
2022-12-09T22:34:13.528Z,31.90
2022-12-09T22:36:41.189Z,29.77
2022-12-09T22:39:13.839Z,32.53
2022-12-09T22:41:41.430Z,28.03
2022-12-09T22:44:11.423Z,30.67
2022-12-09T22:46:42.104Z,30.30
2022-12-09T22:49:11.738Z,32.07
2022-12-09T22:51:41.132Z,31.97
2022-12-09T22:54:09.357Z,30.77
2022-12-09T22:56:39.284Z,34.13
2022-12-09T22:59:06.757Z,32.50
2022-12-09T23:01:37.132Z,32.10
2022-12-09T23:04:07.556Z,32.53
2022-12-09T23:06:37.975Z,35.97
2022-12-09T23:09:07.570Z,34.77
2022-12-09T23:11:34.970Z,30.93
2022-12-09T23:14:02.253Z,40.03
2022-12-09T23:16:29.141Z,36.67
2022-12-09T23:18:58.224Z,33.00
2022-12-09T23:21:33.043Z,36.83
2022-12-09T23:24:06.112Z,36.37
2022-12-09T23:26:39.372Z,36.17
2022-12-09T23:29:13.173Z,34.53
2022-12-09T23:31:41.091Z,34.23
2022-12-09T23:34:11.559Z,38.50
2022-12-09T23:36:41.259Z,35.27
2022-12-09T23:39:12.224Z,33.90
2022-12-09T23:41:41.359Z,34.43
2022-12-09T23:44:12.533Z,40.77
2022-12-09T23:46:40.069Z,40.17
2022-12-09T23:49:07.636Z,41.93
2022-12-09T23:51:39.423Z,41.17
2022-12-09T23:54:08.660Z,37.43
2022-12-09T23:56:39.321Z,34.63
2022-12-09T23:59:10.806Z,42.80
